CheckWX is a tool to help pilots better visualize weather data.  It is not intended as a substitute for an official pre-flight weather briefing.

22:09:23 UTC

LTFG TAF
Gazipasa Airport
Alanya, Turkey
TAF LTFG 201940Z 2021/2106 11005KT CAVOK BECMG 2021/2101 FEW035

Mar-20@
21:00 UTC

Mar-20 @ 21:00 UTC

Mar-21@
06:00 UTC

Mar-21 @ 06:00 UTC

TAF LTFG 201940Z 2021/2106 11005KT CAVOK
Wind
  • 110° at 5 KTS
Conditions
No significant weather
Cloud Levels
  • No significant clouds

Mar-20@
21:00 UTC

Mar-20 @ 21:00 UTC

Mar-21@
06:00 UTC

Mar-21 @ 06:00 UTC

BECMG 2021/2101 FEW035

Becoming

Becoming Conditions expected by Thu, Mar 21, 2019 @ 01:00 UTC

Wind
  • 110° at 5 KTS
Conditions
No significant weather
Cloud Levels
  • Few at 3,500' AGL